sensor_id;sensor_type;location;lat;lon;timestamp;pressure;altitude;pressure_sealevel;temperature;humidity
69574;BME280;62840;52.366;5.980;2022-10-26T00:01:05;101431.09;;;10.81;73.93
69574;BME280;62840;52.366;5.980;2022-10-26T00:03:33;101431.19;;;10.79;74.02
69574;BME280;62840;52.366;5.980;2022-10-26T00:06:10;101430.38;;;10.79;73.93
69574;BME280;62840;52.366;5.980;2022-10-26T00:08:38;101433.13;;;10.77;74.05
69574;BME280;62840;52.366;5.980;2022-10-26T00:11:05;101429.84;;;10.74;73.96
69574;BME280;62840;52.366;5.980;2022-10-26T00:13:33;101422.06;;;10.71;74.11
69574;BME280;62840;52.366;5.980;2022-10-26T00:16:07;101422.06;;;10.71;74.16
69574;BME280;62840;52.366;5.980;2022-10-26T00:18:33;101416.03;;;10.69;73.95
69574;BME280;62840;52.366;5.980;2022-10-26T00:21:02;101409.94;;;10.66;74.19
69574;BME280;62840;52.366;5.980;2022-10-26T00:23:28;101416.22;;;10.65;74.05
69574;BME280;62840;52.366;5.980;2022-10-26T00:25:54;101412.81;;;10.63;74.08
69574;BME280;62840;52.366;5.980;2022-10-26T00:28:21;101417.19;;;10.64;74.10
69574;BME280;62840;52.366;5.980;2022-10-26T00:30:50;101415.47;;;10.63;74.03
69574;BME280;62840;52.366;5.980;2022-10-26T00:33:16;101414.63;;;10.63;74.07
69574;BME280;62840;52.366;5.980;2022-10-26T00:35:42;101412.06;;;10.61;74.23
69574;BME280;62840;52.366;5.980;2022-10-26T00:38:08;101406.00;;;10.59;74.16
69574;BME280;62840;52.366;5.980;2022-10-26T00:40:34;101399.97;;;10.57;74.12
69574;BME280;62840;52.366;5.980;2022-10-26T00:42:59;101396.53;;;10.55;74.15
69574;BME280;62840;52.366;5.980;2022-10-26T00:45:27;101396.75;;;10.52;74.16
69574;BME280;62840;52.366;5.980;2022-10-26T00:48:00;101386.09;;;10.52;74.14
69574;BME280;62840;52.366;5.980;2022-10-26T00:50:31;101384.41;;;10.51;74.15
69574;BME280;62840;52.366;5.980;2022-10-26T00:53:02;101390.47;;;10.53;74.15
69574;BME280;62840;52.366;5.980;2022-10-26T00:55:32;101386.09;;;10.52;74.08
69574;BME280;62840;52.366;5.980;2022-10-26T00:58:03;101392.25;;;10.53;74.04
69574;BME280;62840;52.366;5.980;2022-10-26T01:00:31;101391.41;;;10.52;74.15
69574;BME280;62840;52.366;5.980;2022-10-26T01:03:03;101395.06;;;10.51;74.09
69574;BME280;62840;52.366;5.980;2022-10-26T01:05:31;101394.09;;;10.52;74.25
69574;BME280;62840;52.366;5.980;2022-10-26T01:08:00;101386.09;;;10.52;74.24
69574;BME280;62840;52.366;5.980;2022-10-26T01:10:28;101387.81;;;10.53;74.21
69574;BME280;62840;52.366;5.980;2022-10-26T01:12:56;101381.50;;;10.54;74.33
69574;BME280;62840;52.366;5.980;2022-10-26T01:15:29;101383.94;;;10.57;74.30
69574;BME280;62840;52.366;5.980;2022-10-26T01:18:11;101377.75;;;10.57;74.17
69574;BME280;62840;52.366;5.980;2022-10-26T01:20:57;101371.31;;;10.59;74.26
69574;BME280;62840;52.366;5.980;2022-10-26T01:23:50;101357.28;;;10.57;74.20
69574;BME280;62840;52.366;5.980;2022-10-26T01:26:57;101362.63;;;10.57;74.23
69574;BME280;62840;52.366;5.980;2022-10-26T01:33:01;101360.16;;;10.54;74.34
69574;BME280;62840;52.366;5.980;2022-10-26T01:35:50;101360.16;;;10.54;74.36
69574;BME280;62840;52.366;5.980;2022-10-26T01:38:24;101357.50;;;10.54;74.45
69574;BME280;62840;52.366;5.980;2022-10-26T01:41:01;101349.59;;;10.53;74.57
69574;BME280;62840;52.366;5.980;2022-10-26T01:43:36;101353.13;;;10.53;74.47
69574;BME280;62840;52.366;5.980;2022-10-26T01:46:08;101346.81;;;10.54;74.64
69574;BME280;62840;52.366;5.980;2022-10-26T01:48:40;101345.13;;;10.53;74.63
69574;BME280;62840;52.366;5.980;2022-10-26T01:51:10;101350.22;;;10.56;74.58
69574;BME280;62840;52.366;5.980;2022-10-26T01:53:43;101342.97;;;10.58;74.64
69574;BME280;62840;52.366;5.980;2022-10-26T01:56:13;101334.97;;;10.58;74.74
69574;BME280;62840;52.366;5.980;2022-10-26T01:58:52;101329.63;;;10.58;74.72
69574;BME280;62840;52.366;5.980;2022-10-26T02:01:41;101326.97;;;10.58;74.55
69574;BME280;62840;52.366;5.980;2022-10-26T02:04:33;101326.97;;;10.58;74.49
69574;BME280;62840;52.366;5.980;2022-10-26T02:07:13;101323.31;;;10.59;74.64
69574;BME280;62840;52.366;5.980;2022-10-26T02:09:55;101316.19;;;10.60;74.61
69574;BME280;62840;52.366;5.980;2022-10-26T02:12:31;101316.19;;;10.60;74.66
69574;BME280;62840;52.366;5.980;2022-10-26T02:15:06;101315.31;;;10.59;74.68
69574;BME280;62840;52.366;5.980;2022-10-26T02:17:42;101317.03;;;10.60;74.57
69574;BME280;62840;52.366;5.980;2022-10-26T02:20:19;101308.06;;;10.61;74.61
69574;BME280;62840;52.366;5.980;2022-10-26T02:22:51;101313.38;;;10.61;74.58
69574;BME280;62840;52.366;5.980;2022-10-26T02:25:23;101311.81;;;10.59;74.66
69574;BME280;62840;52.366;5.980;2022-10-26T02:27:55;101307.31;;;10.59;74.64
69574;BME280;62840;52.366;5.980;2022-10-26T02:30:26;101300.28;;;10.58;74.71
69574;BME280;62840;52.366;5.980;2022-10-26T02:32:54;101301.13;;;10.59;74.76
69574;BME280;62840;52.366;5.980;2022-10-26T02:35:27;101300.28;;;10.58;74.70
69574;BME280;62840;52.366;5.980;2022-10-26T02:37:58;101299.56;;;10.56;74.73
69574;BME280;62840;52.366;5.980;2022-10-26T02:40:28;101288.16;;;10.54;74.71
69574;BME280;62840;52.366;5.980;2022-10-26T02:42:57;101280.16;;;10.54;74.77
69574;BME280;62840;52.366;5.980;2022-10-26T02:45:32;101291.78;;;10.53;74.80
69574;BME280;62840;52.366;5.980;2022-10-26T02:48:01;101294.47;;;10.53;74.85
69574;BME280;62840;52.366;5.980;2022-10-26T02:50:37;101295.19;;;10.55;74.72
69574;BME280;62840;52.366;5.980;2022-10-26T02:53:16;101300.28;;;10.58;75.00
69574;BME280;62840;52.366;5.980;2022-10-26T02:55:50;101301.97;;;10.59;74.86
69574;BME280;62840;52.366;5.980;2022-10-26T02:58:19;101301.75;;;10.62;74.71
69574;BME280;62840;52.366;5.980;2022-10-26T03:00:51;101291.09;;;10.62;74.80
69574;BME280;62840;52.366;5.980;2022-10-26T03:03:18;101297.16;;;10.64;74.82
69574;BME280;62840;52.366;5.980;2022-10-26T03:05:47;101293.53;;;10.65;74.98
69574;BME280;62840;52.366;5.980;2022-10-26T03:08:12;101299.84;;;10.64;74.79
69574;BME280;62840;52.366;5.980;2022-10-26T03:10:41;101301.41;;;10.67;74.92
69574;BME280;62840;52.366;5.980;2022-10-26T03:13:10;101302.25;;;10.67;74.83
69574;BME280;62840;52.366;5.980;2022-10-26T03:15:37;101303.25;;;10.66;74.82
69574;BME280;62840;52.366;5.980;2022-10-26T03:18:04;101298.75;;;10.67;74.82
69574;BME280;62840;52.366;5.980;2022-10-26T03:20:30;101300.56;;;10.66;74.83
69574;BME280;62840;52.366;5.980;2022-10-26T03:22:59;101297.75;;;10.68;75.12
69574;BME280;62840;52.366;5.980;2022-10-26T03:25:25;101301.41;;;10.67;74.94
69574;BME280;62840;52.366;5.980;2022-10-26T03:27:56;101295.97;;;10.69;74.94
69574;BME280;62840;52.366;5.980;2022-10-26T03:30:22;101292.31;;;10.70;74.84
69574;BME280;62840;52.366;5.980;2022-10-26T03:32:48;101297.66;;;10.70;74.98
69574;BME280;62840;52.366;5.980;2022-10-26T03:35:14;101290.41;;;10.72;74.88
69574;BME280;62840;52.366;5.980;2022-10-26T03:37:39;101288.47;;;10.74;74.85
69574;BME280;62840;52.366;5.980;2022-10-26T03:40:09;101284.06;;;10.73;74.91
69574;BME280;62840;52.366;5.980;2022-10-26T03:42:36;101284.81;;;10.75;75.02
69574;BME280;62840;52.366;5.980;2022-10-26T03:45:02;101283.88;;;10.76;74.92
69574;BME280;62840;52.366;5.980;2022-10-26T03:47:29;101280.22;;;10.77;75.09
69574;BME280;62840;52.366;5.980;2022-10-26T03:49:55;101279.25;;;10.78;74.88
69574;BME280;62840;52.366;5.980;2022-10-26T03:52:21;101280.94;;;10.79;75.10
69574;BME280;62840;52.366;5.980;2022-10-26T03:54:47;101267.59;;;10.79;74.99
69574;BME280;62840;52.366;5.980;2022-10-26T03:57:15;101268.34;;;10.81;75.20
69574;BME280;62840;52.366;5.980;2022-10-26T03:59:41;101266.41;;;10.83;75.23
69574;BME280;62840;52.366;5.980;2022-10-26T04:02:07;101260.81;;;10.86;75.06
69574;BME280;62840;52.366;5.980;2022-10-26T04:04:32;101264.25;;;10.88;75.15
69574;BME280;62840;52.366;5.980;2022-10-26T04:06:58;101272.25;;;10.88;75.02
69574;BME280;62840;52.366;5.980;2022-10-26T04:09:24;101273.00;;;10.90;75.09
69574;BME280;62840;52.366;5.980;2022-10-26T04:11:50;101277.25;;;10.93;75.14
69574;BME280;62840;52.366;5.980;2022-10-26T04:14:18;101278.81;;;10.95;75.01
69574;BME280;62840;52.366;5.980;2022-10-26T04:16:44;101272.53;;;10.96;75.27
69574;BME280;62840;52.366;5.980;2022-10-26T04:19:09;101274.22;;;10.97;75.18
69574;BME280;62840;52.366;5.980;2022-10-26T04:21:35;101270.59;;;10.98;75.14
69574;BME280;62840;52.366;5.980;2022-10-26T04:24:01;101261.59;;;10.99;75.18
69574;BME280;62840;52.366;5.980;2022-10-26T04:26:27;101252.88;;;10.97;75.17
69574;BME280;62840;52.366;5.980;2022-10-26T04:28:52;101262.44;;;11.00;75.35
69574;BME280;62840;52.366;5.980;2022-10-26T04:31:21;101263.31;;;11.00;75.35
69574;BME280;62840;52.366;5.980;2022-10-26T04:33:46;101263.06;;;11.03;75.32
69574;BME280;62840;52.366;5.980;2022-10-26T04:36:12;101256.66;;;11.06;75.33
69574;BME280;62840;52.366;5.980;2022-10-26T04:38:38;101262.59;;;11.10;75.34
69574;BME280;62840;52.366;5.980;2022-10-26T04:41:04;101260.78;;;11.10;75.34
69574;BME280;62840;52.366;5.980;2022-10-26T04:43:29;101262.59;;;11.10;75.32
69574;BME280;62840;52.366;5.980;2022-10-26T04:45:55;101262.59;;;11.10;75.44
69574;BME280;62840;52.366;5.980;2022-10-26T04:48:24;101266.00;;;11.12;75.51
69574;BME280;62840;52.366;5.980;2022-10-26T04:50:50;101264.19;;;11.12;75.43
69574;BME280;62840;52.366;5.980;2022-10-26T04:53:16;101269.41;;;11.14;75.28
69574;BME280;62840;52.366;5.980;2022-10-26T04:55:41;101269.16;;;11.17;75.28
69574;BME280;62840;52.366;5.980;2022-10-26T04:58:07;101254.81;;;11.18;75.28
69574;BME280;62840;52.366;5.980;2022-10-26T05:00:33;101258.22;;;11.20;75.36
69574;BME280;62840;52.366;5.980;2022-10-26T05:03:00;101260.06;;;11.19;75.31
69574;BME280;62840;52.366;5.980;2022-10-26T05:05:31;101259.94;;;11.21;75.40
69574;BME280;62840;52.366;5.980;2022-10-26T05:07:59;101255.44;;;11.21;75.51
69574;BME280;62840;52.366;5.980;2022-10-26T05:10:26;101253.63;;;11.22;75.43
69574;BME280;62840;52.366;5.980;2022-10-26T05:12:52;101250.94;;;11.22;75.39
69574;BME280;62840;52.366;5.980;2022-10-26T05:15:19;101252.66;;;11.23;75.60
69574;BME280;62840;52.366;5.980;2022-10-26T05:17:46;101261.41;;;11.25;75.57
69574;BME280;62840;52.366;5.980;2022-10-26T05:20:12;101250.72;;;11.25;75.46
69574;BME280;62840;52.366;5.980;2022-10-26T05:22:41;101253.25;;;11.26;75.73
69574;BME280;62840;52.366;5.980;2022-10-26T05:25:07;101250.47;;;11.28;75.41
69574;BME280;62840;52.366;5.980;2022-10-26T05:27:33;101244.88;;;11.31;75.22
69574;BME280;62840;52.366;5.980;2022-10-26T05:29:59;101244.88;;;11.31;75.36
69574;BME280;62840;52.366;5.980;2022-10-26T05:32:24;101248.53;;;11.30;75.30
69574;BME280;62840;52.366;5.980;2022-10-26T05:34:50;101237.84;;;11.30;75.21
69574;BME280;62840;52.366;5.980;2022-10-26T05:37:16;101248.53;;;11.30;75.30
69574;BME280;62840;52.366;5.980;2022-10-26T05:39:44;101249.38;;;11.31;75.27
69574;BME280;62840;52.366;5.980;2022-10-26T05:42:10;101246.81;;;11.29;75.49
69574;BME280;62840;52.366;5.980;2022-10-26T05:44:35;101250.59;;;11.26;75.31
69574;BME280;62840;52.366;5.980;2022-10-26T05:47:01;101259.69;;;11.24;75.27
69574;BME280;62840;52.366;5.980;2022-10-26T05:49:27;101256.28;;;11.22;75.37
69574;BME280;62840;52.366;5.980;2022-10-26T05:51:52;101255.69;;;11.18;75.33
69574;BME280;62840;52.366;5.980;2022-10-26T05:54:18;101253.97;;;11.17;75.37
69574;BME280;62840;52.366;5.980;2022-10-26T05:56:47;101255.09;;;11.15;75.32
69574;BME280;62840;52.366;5.980;2022-10-26T05:59:15;101258.72;;;11.14;75.24
69574;BME280;62840;52.366;5.980;2022-10-26T06:01:57;101266.00;;;11.12;75.47
69574;BME280;62840;52.366;5.980;2022-10-26T06:04:35;101267.94;;;11.10;75.41
69574;BME280;62840;52.366;5.980;2022-10-26T06:07:06;101258.47;;;11.05;75.25
69574;BME280;62840;52.366;5.980;2022-10-26T06:09:37;101260.31;;;11.05;75.35
69574;BME280;62840;52.366;5.980;2022-10-26T06:12:07;101260.53;;;11.02;75.31
69574;BME280;62840;52.366;5.980;2022-10-26T06:14:35;101261.59;;;10.99;75.39
69574;BME280;62840;52.366;5.980;2022-10-26T06:17:14;101265.25;;;10.98;75.36
69574;BME280;62840;52.366;5.980;2022-10-26T06:20:02;101263.69;;;10.96;75.41
69574;BME280;62840;52.366;5.980;2022-10-26T06:22:53;101263.78;;;10.94;75.20
69574;BME280;62840;52.366;5.980;2022-10-26T06:25:35;101269.13;;;10.94;75.31
69574;BME280;62840;52.366;5.980;2022-10-26T06:28:20;101264.88;;;10.92;75.29
69574;BME280;62840;52.366;5.980;2022-10-26T06:30:58;101259.78;;;10.88;75.29
69574;BME280;62840;52.366;5.980;2022-10-26T06:33:24;101266.16;;;10.86;75.39
69574;BME280;62840;52.366;5.980;2022-10-26T06:35:58;101277.94;;;10.83;75.42
69574;BME280;62840;52.366;5.980;2022-10-26T06:38:37;101272.84;;;10.80;75.33
69574;BME280;62840;52.366;5.980;2022-10-26T06:41:07;101277.19;;;10.81;75.36
69574;BME280;62840;52.366;5.980;2022-10-26T06:43:36;101279.00;;;10.81;75.30
69574;BME280;62840;52.366;5.980;2022-10-26T06:46:09;101278.16;;;10.80;75.27
69574;BME280;62840;52.366;5.980;2022-10-26T06:48:53;101273.06;;;10.77;75.49
69574;BME280;62840;52.366;5.980;2022-10-26T06:51:26;101279.47;;;10.75;75.42
69574;BME280;62840;52.366;5.980;2022-10-26T06:54:00;101281.19;;;10.76;75.58
69574;BME280;62840;52.366;5.980;2022-10-26T06:56:35;101277.53;;;10.77;75.36
69574;BME280;62840;52.366;5.980;2022-10-26T06:59:07;101282.03;;;10.76;75.29
69574;BME280;62840;52.366;5.980;2022-10-26T07:01:41;101280.31;;;10.75;75.58
69574;BME280;62840;52.366;5.980;2022-10-26T07:04:07;101274.13;;;10.75;75.53
69574;BME280;62840;52.366;5.980;2022-10-26T07:06:32;101277.78;;;10.74;75.56
69574;BME280;62840;52.366;5.980;2022-10-26T07:08:58;101277.53;;;10.77;75.58
69574;BME280;62840;52.366;5.980;2022-10-26T07:11:24;101279.25;;;10.78;75.56
69574;BME280;62840;52.366;5.980;2022-10-26T07:13:49;101286.19;;;10.80;75.66
69574;BME280;62840;52.366;5.980;2022-10-26T07:16:18;101278.78;;;10.84;75.50
69574;BME280;62840;52.366;5.980;2022-10-26T07:18:43;101277.94;;;10.83;75.46
69574;BME280;62840;52.366;5.980;2022-10-26T07:21:09;101279.44;;;10.87;75.57
69574;BME280;62840;52.366;5.980;2022-10-26T07:23:35;101278.56;;;10.87;75.54
69574;BME280;62840;52.366;5.980;2022-10-26T07:26:00;101281.13;;;10.88;75.46
69574;BME280;62840;52.366;5.980;2022-10-26T07:28:26;101287.06;;;10.92;75.48
69574;BME280;62840;52.366;5.980;2022-10-26T07:30:52;101294.09;;;10.93;75.63
69574;BME280;62840;52.366;5.980;2022-10-26T07:33:20;101290.47;;;10.94;75.64
69574;BME280;62840;52.366;5.980;2022-10-26T07:35:46;101292.06;;;10.97;75.66
69574;BME280;62840;52.366;5.980;2022-10-26T07:38:12;101289.28;;;10.98;75.79
69574;BME280;62840;52.366;5.980;2022-10-26T07:40:38;101293.63;;;10.99;75.78
69574;BME280;62840;52.366;5.980;2022-10-26T07:43:03;101290.84;;;11.01;75.53
69574;BME280;62840;52.366;5.980;2022-10-26T07:45:30;101294.25;;;11.03;75.88
69574;BME280;62840;52.366;5.980;2022-10-26T07:47:56;101293.16;;;11.05;75.85
69574;BME280;62840;52.366;5.980;2022-10-26T07:50:24;101286.84;;;11.06;75.88
69574;BME280;62840;52.366;5.980;2022-10-26T07:52:50;101292.91;;;11.08;75.62
69574;BME280;62840;52.366;5.980;2022-10-26T07:55:16;101292.69;;;11.12;75.88
69574;BME280;62840;52.366;5.980;2022-10-26T07:57:42;101285.44;;;11.14;75.79
69574;BME280;62840;52.366;5.980;2022-10-26T08:00:09;101293.19;;;11.17;75.60
69574;BME280;62840;52.366;5.980;2022-10-26T08:02:36;101299.25;;;11.19;75.84
69574;BME280;62840;52.366;5.980;2022-10-26T08:05:02;101290.25;;;11.20;75.76
69574;BME280;62840;52.366;5.980;2022-10-26T08:07:31;101291.72;;;11.24;75.95
69574;BME280;62840;52.366;5.980;2022-10-26T08:09:56;101295.13;;;11.26;76.05
69574;BME280;62840;52.366;5.980;2022-10-26T08:12:22;101287.84;;;11.28;75.80
69574;BME280;62840;52.366;5.980;2022-10-26T08:14:48;101300.84;;;11.33;75.99
69574;BME280;62840;52.366;5.980;2022-10-26T08:17:14;101298.06;;;11.34;76.10
69574;BME280;62840;52.366;5.980;2022-10-26T08:19:40;101294.16;;;11.38;76.05
69574;BME280;62840;52.366;5.980;2022-10-26T08:22:05;101300.97;;;11.42;76.18
69574;BME280;62840;52.366;5.980;2022-10-26T08:24:34;101299.03;;;11.44;76.14
69574;BME280;62840;52.366;5.980;2022-10-26T08:26:59;101301.22;;;11.50;76.26
69574;BME280;62840;52.366;5.980;2022-10-26T08:29:25;101300.00;;;11.55;76.07
69574;BME280;62840;52.366;5.980;2022-10-26T08:31:51;101294.41;;;11.58;76.30
69574;BME280;62840;52.366;5.980;2022-10-26T08:34:17;101296.72;;;11.62;76.34
69574;BME280;62840;52.366;5.980;2022-10-26T08:36:42;101301.69;;;11.67;76.37
69574;BME280;62840;52.366;5.980;2022-10-26T08:39:08;101316.50;;;11.71;76.25
69574;BME280;62840;52.366;5.980;2022-10-26T08:41:40;101304.50;;;11.77;76.24
69574;BME280;62840;52.366;5.980;2022-10-26T08:44:19;101324.50;;;11.82;76.36
69574;BME280;62840;52.366;5.980;2022-10-26T08:46:53;101326.69;;;11.88;76.41
69574;BME280;62840;52.366;5.980;2022-10-26T08:49:24;101323.50;;;11.95;76.38
69574;BME280;62840;52.366;5.980;2022-10-26T08:51:57;101327.41;;;12.02;76.25
69574;BME280;62840;52.366;5.980;2022-10-26T08:54:34;101340.25;;;12.08;76.12
69574;BME280;62840;52.366;5.980;2022-10-26T08:57:13;101327.22;;;12.15;76.36
69574;BME280;62840;52.366;5.980;2022-10-26T08:59:49;101317.03;;;12.20;76.34
69574;BME280;62840;52.366;5.980;2022-10-26T09:02:20;101310.31;;;12.25;76.28
69574;BME280;62840;52.366;5.980;2022-10-26T09:04:46;101318.59;;;12.33;76.73
69574;BME280;62840;52.366;5.980;2022-10-26T09:07:21;101319.78;;;12.41;76.36
69574;BME280;62840;52.366;5.980;2022-10-26T09:10:00;101327.16;;;12.48;76.28
69574;BME280;62840;52.366;5.980;2022-10-26T09:12:44;101322.16;;;12.55;76.45
69574;BME280;62840;52.366;5.980;2022-10-26T09:15:24;101315.47;;;12.61;76.54
69574;BME280;62840;52.366;5.980;2022-10-26T09:18:06;101331.84;;;12.67;76.43
69574;BME280;62840;52.366;5.980;2022-10-26T09:20:54;101327.69;;;12.74;76.39
69574;BME280;62840;52.366;5.980;2022-10-26T09:23:39;101328.13;;;12.80;76.38
69574;BME280;62840;52.366;5.980;2022-10-26T09:26:28;101336.50;;;12.86;76.42
69574;BME280;62840;52.366;5.980;2022-10-26T09:29:01;101335.13;;;12.92;76.47
69574;BME280;62840;52.366;5.980;2022-10-26T09:31:38;101343.34;;;13.00;76.50
69574;BME280;62840;52.366;5.980;2022-10-26T09:34:06;101335.78;;;13.05;76.55
69574;BME280;62840;52.366;5.980;2022-10-26T09:36:42;101336.97;;;13.12;76.72
69574;BME280;62840;52.366;5.980;2022-10-26T09:39:14;101329.38;;;13.18;76.43
69574;BME280;62840;52.366;5.980;2022-10-26T09:41:50;101332.25;;;13.26;76.70
69574;BME280;62840;52.366;5.980;2022-10-26T09:44:26;101335.09;;;13.34;76.63
69574;BME280;62840;52.366;5.980;2022-10-26T09:47:00;101330.94;;;13.41;76.66
69574;BME280;62840;52.366;5.980;2022-10-26T09:49:37;101337.44;;;13.48;76.68
69574;BME280;62840;52.366;5.980;2022-10-26T09:52:07;101324.47;;;13.53;76.68
69574;BME280;62840;52.366;5.980;2022-10-26T09:54:33;101323.69;;;13.63;76.90
69574;BME280;62840;52.366;5.980;2022-10-26T09:56:59;101315.84;;;13.71;76.85
69574;BME280;62840;52.366;5.980;2022-10-26T09:59:33;101325.75;;;13.80;76.84
69574;BME280;62840;52.366;5.980;2022-10-26T10:02:31;101308.84;;;13.89;76.82
69574;BME280;62840;52.366;5.980;2022-10-26T10:04:57;101313.66;;;13.95;76.68
69574;BME280;62840;52.366;5.980;2022-10-26T10:07:23;101325.25;;;14.06;76.74
69574;BME280;62840;52.366;5.980;2022-10-26T10:10:05;101315.41;;;14.16;76.85
69574;BME280;62840;52.366;5.980;2022-10-26T10:12:32;101328.94;;;14.24;76.89
69574;BME280;62840;52.366;5.980;2022-10-26T10:15:01;101333.50;;;14.33;76.88
69574;BME280;62840;52.366;5.980;2022-10-26T10:17:27;101337.31;;;14.40;76.45
69574;BME280;62840;52.366;5.980;2022-10-26T10:19:52;101337.44;;;14.49;76.44
69574;BME280;62840;52.366;5.980;2022-10-26T10:22:20;101338.59;;;14.56;76.71
69574;BME280;62840;52.366;5.980;2022-10-26T10:24:54;101348.50;;;14.65;76.31
69574;BME280;62840;52.366;5.980;2022-10-26T10:27:21;101351.59;;;14.70;76.55
69574;BME280;62840;52.366;5.980;2022-10-26T10:29:50;101359.84;;;14.78;76.60
69574;BME280;62840;52.366;5.980;2022-10-26T10:32:21;101371.69;;;14.86;76.37
69574;BME280;62840;52.366;5.980;2022-10-26T10:34:49;101379.88;;;14.94;76.17
69574;BME280;62840;52.366;5.980;2022-10-26T10:37:23;101386.09;;;15.04;76.44
69574;BME280;62840;52.366;5.980;2022-10-26T10:39:55;101388.94;;;15.12;76.46
69574;BME280;62840;52.366;5.980;2022-10-26T10:42:25;101386.34;;;15.20;76.28
69574;BME280;62840;52.366;5.980;2022-10-26T10:44:56;101383.81;;;15.29;76.00
69574;BME280;62840;52.366;5.980;2022-10-26T10:47:27;101384.63;;;15.39;76.03
69574;BME280;62840;52.366;5.980;2022-10-26T10:49:57;101386.59;;;15.47;75.78
69574;BME280;62840;52.366;5.980;2022-10-26T10:52:28;101385.00;;;15.54;75.59
69574;BME280;62840;52.366;5.980;2022-10-26T10:55:17;101391.75;;;15.68;75.76
69574;BME280;62840;52.366;5.980;2022-10-26T10:57:55;101400.94;;;15.75;75.27
69574;BME280;62840;52.366;5.980;2022-10-26T11:00:35;101403.63;;;15.84;75.73
69574;BME280;62840;52.366;5.980;2022-10-26T11:03:14;101412.81;;;15.92;75.23
69574;BME280;62840;52.366;5.980;2022-10-26T11:06:10;101405.97;;;15.97;75.43
69574;BME280;62840;52.366;5.980;2022-10-26T11:08:45;101404.53;;;16.03;75.11
69574;BME280;62840;52.366;5.980;2022-10-26T11:11:16;101396.03;;;16.08;75.07
69574;BME280;62840;52.366;5.980;2022-10-26T11:13:50;101404.47;;;16.13;74.93
69574;BME280;62840;52.366;5.980;2022-10-26T11:16:23;101413.97;;;16.17;74.74
69574;BME280;62840;52.366;5.980;2022-10-26T11:18:59;101413.19;;;16.24;74.91
69574;BME280;62840;52.366;5.980;2022-10-26T11:21:30;101407.22;;;16.31;74.59
69574;BME280;62840;52.366;5.980;2022-10-26T11:24:06;101405.78;;;16.36;74.53
69574;BME280;62840;52.366;5.980;2022-10-26T11:26:43;101415.94;;;16.42;74.29
69574;BME280;62840;52.366;5.980;2022-10-26T11:29:24;101436.88;;;16.48;73.98
69574;BME280;62840;52.366;5.980;2022-10-26T11:32:01;101440.81;;;16.54;74.14
69574;BME280;62840;52.366;5.980;2022-10-26T11:34:40;101450.13;;;16.60;74.04
69574;BME280;62840;52.366;5.980;2022-10-26T11:37:17;101446.13;;;16.64;73.48
69574;BME280;62840;52.366;5.980;2022-10-26T11:40:03;101450.03;;;16.69;73.84
69574;BME280;62840;52.366;5.980;2022-10-26T11:42:42;101452.28;;;16.74;73.43
69574;BME280;62840;52.366;5.980;2022-10-26T11:45:16;101459.75;;;16.80;73.75
69574;BME280;62840;52.366;5.980;2022-10-26T11:47:50;101452.28;;;16.84;73.31
69574;BME280;62840;52.366;5.980;2022-10-26T11:50:24;101452.78;;;16.87;73.46
69574;BME280;62840;52.366;5.980;2022-10-26T11:52:58;101459.56;;;16.92;73.44
69574;BME280;62840;52.366;5.980;2022-10-26T11:55:30;101461.28;;;16.93;73.45
69574;BME280;62840;52.366;5.980;2022-10-26T11:57:57;101461.28;;;16.93;73.09
69574;BME280;62840;52.366;5.980;2022-10-26T12:00:23;101469.03;;;16.96;73.35
69574;BME280;62840;52.366;5.980;2022-10-26T12:02:54;101464.34;;;16.98;73.53
69574;BME280;62840;52.366;5.980;2022-10-26T12:05:33;101473.13;;;17.00;73.38
69574;BME280;62840;52.366;5.980;2022-10-26T12:08:10;101476.53;;;17.02;73.56
69574;BME280;62840;52.366;5.980;2022-10-26T12:10:42;101477.22;;;17.04;73.38
69574;BME280;62840;52.366;5.980;2022-10-26T12:13:23;101487.84;;;17.05;73.54
69574;BME280;62840;52.366;5.980;2022-10-26T12:15:58;101489.53;;;17.06;73.43
69574;BME280;62840;52.366;5.980;2022-10-26T12:18:37;101485.69;;;17.09;73.42
69574;BME280;62840;52.366;5.980;2022-10-26T12:21:11;101478.44;;;17.09;73.38
69574;BME280;62840;52.366;5.980;2022-10-26T12:23:53;101486.06;;;17.14;73.19
69574;BME280;62840;52.366;5.980;2022-10-26T12:26:37;101483.22;;;17.16;73.16
69574;BME280;62840;52.366;5.980;2022-10-26T12:32:03;101488.84;;;17.22;73.08
69574;BME280;62840;52.366;5.980;2022-10-26T12:35:00;101493.06;;;17.25;72.66
69574;BME280;62840;52.366;5.980;2022-10-26T12:37:34;101495.44;;;17.28;73.09
69574;BME280;62840;52.366;5.980;2022-10-26T12:43:32;101495.53;;;17.36;72.88
69574;BME280;62840;52.366;5.980;2022-10-26T12:49:02;101499.16;;;17.45;72.75
69574;BME280;62840;52.366;5.980;2022-10-26T12:51:41;101497.16;;;17.47;72.99
69574;BME280;62840;52.366;5.980;2022-10-26T12:54:19;101500.53;;;17.49;72.76
69574;BME280;62840;52.366;5.980;2022-10-26T12:57:09;101506.63;;;17.51;72.28
69574;BME280;62840;52.366;5.980;2022-10-26T12:59:51;101507.31;;;17.53;72.78
69574;BME280;62840;52.366;5.980;2022-10-26T13:02:39;101513.22;;;17.57;72.30
69574;BME280;62840;52.366;5.980;2022-10-26T13:05:31;101515.09;;;17.56;72.36
69574;BME280;62840;52.366;5.980;2022-10-26T13:08:21;101521.19;;;17.58;72.27
69574;BME280;62840;52.366;5.980;2022-10-26T13:11:02;101533.34;;;17.62;72.19
69574;BME280;62840;52.366;5.980;2022-10-26T13:13:32;101531.16;;;17.66;72.16
69574;BME280;62840;52.366;5.980;2022-10-26T13:16:00;101533.25;;;17.72;72.18
69574;BME280;62840;52.366;5.980;2022-10-26T13:18:28;101530.06;;;17.77;72.01
69574;BME280;62840;52.366;5.980;2022-10-26T13:21:02;101536.91;;;17.81;71.65
69574;BME280;62840;52.366;5.980;2022-10-26T13:23:35;101536.56;;;17.84;71.83
69574;BME280;62840;52.366;5.980;2022-10-26T13:26:08;101539.25;;;17.84;71.87